URSS 241800Z 03002MPS 9999 -SHRA OVC060CB 13/11 Q1016 R02/290060 R06/290060 NOSIG RMK R06/07003MPS QFE760
QNH:(hPa/inHg/mmHg)1016 / 30 / 762
QFE:(hPa/inHg/mmHg)1013 / 29.91 / 760
Temperature13
Dew Point11
Visibility> 10000
WeatherLight Showers Rain
Cloud CoverOVC (6000);
Transition Altitude13000 ft.
Transition LevelFL140
SQUAWK